createdAt,value
2023-03-16T00:02:05.731Z,0.70
2023-03-16T00:07:10.841Z,0.74
2023-03-16T00:12:17.164Z,0.69
2023-03-16T00:17:21.497Z,0.58
2023-03-16T00:22:26.785Z,0.25
2023-03-16T00:27:31.473Z,0.06
2023-03-16T00:32:37.032Z,0.13
2023-03-16T00:37:40.387Z,0.35
2023-03-16T00:42:44.640Z,0.44
2023-03-16T00:47:47.526Z,0.30
2023-03-16T00:52:53.671Z,0.22
2023-03-16T00:57:57.970Z,0.09
2023-03-16T01:03:00.966Z,0.08
2023-03-16T01:08:04.329Z,0.03
2023-03-16T01:13:08.736Z,0.00
2023-03-16T01:18:13.371Z,0.19
2023-03-16T01:23:16.576Z,0.00
2023-03-16T01:28:21.735Z,0.13
2023-03-16T01:33:26.742Z,0.13
2023-03-16T01:38:30.088Z,0.13
2023-03-16T01:43:37.482Z,0.12
2023-03-16T01:48:44.859Z,0.12
2023-03-16T01:53:49.983Z,-0.06
2023-03-16T01:58:58.990Z,-0.23
2023-03-16T02:04:13.454Z,-0.24
2023-03-16T02:09:17.815Z,-0.13
2023-03-16T02:14:22.174Z,-0.04
2023-03-16T02:19:39.333Z,-0.26
2023-03-16T02:24:43.234Z,-0.25
2023-03-16T02:30:02.397Z,-0.14
2023-03-16T02:35:12.994Z,-0.26
2023-03-16T02:40:23.660Z,-0.19
2023-03-16T02:45:34.533Z,-0.36
2023-03-16T02:50:46.915Z,-0.35
2023-03-16T02:55:50.072Z,-0.26
2023-03-16T03:00:55.173Z,-0.16
2023-03-16T03:05:58.084Z,-0.28
2023-03-16T03:11:01.388Z,-0.32
2023-03-16T03:16:06.048Z,-0.23
2023-03-16T03:21:09.088Z,-0.29
2023-03-16T03:26:11.962Z,-0.30
2023-03-16T03:31:17.687Z,-0.38
2023-03-16T03:36:22.231Z,-0.33
2023-03-16T03:41:26.096Z,-0.37
2023-03-16T03:46:31.561Z,-0.30
2023-03-16T03:51:34.901Z,-0.29
2023-03-16T03:56:48.689Z,-0.38
2023-03-16T04:01:54.695Z,-0.41
2023-03-16T04:07:00.339Z,-0.30
2023-03-16T04:12:03.705Z,-0.36
2023-03-16T04:17:08.273Z,-0.27
2023-03-16T04:22:13.693Z,-0.29
2023-03-16T04:27:16.730Z,-0.25
2023-03-16T04:32:23.124Z,-0.25
2023-03-16T04:37:26.333Z,-0.30
2023-03-16T04:42:29.757Z,-0.29
2023-03-16T04:47:34.835Z,-0.35
2023-03-16T04:52:37.771Z,-0.43
2023-03-16T04:57:40.877Z,-0.48
2023-03-16T05:02:45.356Z,-0.56
2023-03-16T05:07:49.237Z,-0.48
2023-03-16T05:12:53.553Z,-0.43
2023-03-16T05:17:58.295Z,-0.29
2023-03-16T05:23:02.024Z,-0.29
2023-03-16T05:28:09.221Z,-0.29
2023-03-16T05:33:25.676Z,-0.08
2023-03-16T05:38:36.860Z,0.14
2023-03-16T05:43:40.830Z,0.18
2023-03-16T05:48:45.368Z,0.26
2023-03-16T05:53:50.922Z,0.31
2023-03-16T05:59:04.446Z,0.38
2023-03-16T06:04:09.393Z,1.11
2023-03-16T06:09:16.368Z,1.97
2023-03-16T06:14:19.522Z,1.97
2023-03-16T06:19:24.282Z,1.85
2023-03-16T06:24:32.993Z,1.67
2023-03-16T06:29:36.200Z,2.70
2023-03-16T06:34:41.725Z,2.05
2023-03-16T06:39:45.750Z,3.41
2023-03-16T06:44:49.228Z,3.19
2023-03-16T06:49:55.279Z,3.44
2023-03-16T06:55:01.204Z,4.04
2023-03-16T07:00:08.766Z,3.70
2023-03-16T07:05:14.209Z,3.67
2023-03-16T07:10:19.533Z,2.92
2023-03-16T07:15:22.660Z,4.32
2023-03-16T07:20:30.395Z,4.62
2023-03-16T07:25:35.259Z,4.54
2023-03-16T07:30:40.463Z,5.11
2023-03-16T07:35:47.524Z,5.14
2023-03-16T07:40:52.197Z,4.74
2023-03-16T07:45:58.347Z,4.15
2023-03-16T07:51:03.312Z,4.29
2023-03-16T07:56:07.713Z,4.64
2023-03-16T08:01:13.459Z,5.98
2023-03-16T08:06:18.159Z,6.07
2023-03-16T08:11:24.563Z,5.53
2023-03-16T08:16:32.942Z,5.50
2023-03-16T08:21:49.723Z,5.35
2023-03-16T08:27:01.407Z,6.30
2023-03-16T08:32:07.196Z,6.17
2023-03-16T08:37:17.847Z,6.81
2023-03-16T08:42:22.504Z,6.38
2023-03-16T08:47:31.015Z,6.27
2023-03-16T08:52:37.418Z,6.38
2023-03-16T08:57:40.370Z,7.70
2023-03-16T09:02:43.802Z,6.71
2023-03-16T09:07:49.111Z,7.44
2023-03-16T09:12:52.619Z,7.77
2023-03-16T09:17:57.344Z,7.61
2023-03-16T09:23:01.656Z,8.72
2023-03-16T09:28:04.565Z,8.64
2023-03-16T09:33:07.733Z,8.90
2023-03-16T09:38:12.749Z,9.19
2023-03-16T09:43:27.011Z,9.14
2023-03-16T09:48:32.925Z,9.11
2023-03-16T09:53:40.159Z,7.47
2023-03-16T09:58:43.913Z,8.94
2023-03-16T10:04:03.343Z,8.40
2023-03-16T10:09:22.781Z,8.31
2023-03-16T10:14:31.554Z,9.41
2023-03-16T10:19:42.049Z,9.88
2023-03-16T10:24:57.476Z,10.02
2023-03-16T10:30:01.289Z,9.66
2023-03-16T10:35:08.233Z,9.62
2023-03-16T10:40:13.486Z,9.47
2023-03-16T10:45:27.412Z,9.62
2023-03-16T10:50:32.010Z,9.55
2023-03-16T10:55:44.918Z,9.78
2023-03-16T11:00:47.872Z,10.23
2023-03-16T11:05:58.767Z,10.19
2023-03-16T11:11:11.856Z,8.24
2023-03-16T11:16:30.630Z,9.49
2023-03-16T11:21:43.021Z,9.03
2023-03-16T11:26:54.230Z,9.03
2023-03-16T11:32:01.655Z,9.42
2023-03-16T11:37:15.929Z,9.35
2023-03-16T11:42:29.836Z,9.93
2023-03-16T11:47:55.646Z,9.67
2023-03-16T11:53:05.125Z,10.44
2023-03-16T11:58:29.426Z,9.82
2023-03-16T12:03:50.239Z,9.54
2023-03-16T12:09:13.458Z,9.71
2023-03-16T12:14:24.474Z,9.77
2023-03-16T12:19:39.258Z,9.79
2023-03-16T12:24:45.417Z,9.49
2023-03-16T12:29:59.399Z,9.56
2023-03-16T12:35:12.114Z,10.07
2023-03-16T12:40:27.380Z,10.09
2023-03-16T12:45:38.682Z,9.58
2023-03-16T12:50:50.615Z,9.55
2023-03-16T12:55:53.788Z,10.11
2023-03-16T13:01:00.532Z,10.24
2023-03-16T13:06:03.858Z,9.53
2023-03-16T13:11:09.614Z,9.37
2023-03-16T13:16:27.309Z,9.75
2023-03-16T13:21:42.604Z,10.00
2023-03-16T13:26:48.570Z,9.64
2023-03-16T13:31:54.928Z,9.87
2023-03-16T13:37:01.497Z,9.87
2023-03-16T13:42:15.846Z,9.44
2023-03-16T13:47:21.276Z,9.92
2023-03-16T13:52:27.763Z,9.83
2023-03-16T13:57:33.167Z,9.82
2023-03-16T14:02:43.668Z,9.29
2023-03-16T14:07:48.665Z,9.57
2023-03-16T14:12:53.161Z,9.33
2023-03-16T14:18:14.684Z,9.02
2023-03-16T14:23:24.519Z,9.29
2023-03-16T14:28:32.421Z,9.40
2023-03-16T14:33:40.092Z,9.25
2023-03-16T14:38:44.624Z,9.07
2023-03-16T14:43:49.756Z,9.16
2023-03-16T14:49:01.209Z,9.30
2023-03-16T14:54:07.435Z,9.22
2023-03-16T14:59:10.459Z,9.37
2023-03-16T15:04:19.563Z,9.45
2023-03-16T15:09:35.824Z,8.98
2023-03-16T15:14:56.141Z,9.04
2023-03-16T15:20:00.528Z,8.99
2023-03-16T15:25:12.272Z,8.94
2023-03-16T15:30:18.434Z,8.96
2023-03-16T15:35:23.209Z,8.93
2023-03-16T15:40:29.068Z,8.89
2023-03-16T15:45:32.198Z,8.58
2023-03-16T15:50:37.792Z,8.46
2023-03-16T15:55:45.199Z,8.32
2023-03-16T16:00:49.517Z,8.20
2023-03-16T16:05:54.348Z,7.68
2023-03-16T16:10:57.656Z,8.07
2023-03-16T16:16:00.594Z,7.94
2023-03-16T16:21:07.105Z,7.51
2023-03-16T16:26:21.497Z,7.36
2023-03-16T16:31:25.607Z,7.16
2023-03-16T16:36:32.485Z,7.08
2023-03-16T16:41:36.835Z,6.98
2023-03-16T16:46:42.613Z,6.77
2023-03-16T16:51:47.534Z,6.67
2023-03-16T16:56:52.529Z,6.47
2023-03-16T17:01:56.546Z,6.42
2023-03-16T17:07:02.736Z,6.21
2023-03-16T17:12:16.348Z,6.03
2023-03-16T17:17:19.764Z,5.92
2023-03-16T17:22:28.275Z,5.89
2023-03-16T17:27:33.074Z,5.58
2023-03-16T17:32:36.001Z,5.35
2023-03-16T17:37:40.282Z,5.36
2023-03-16T17:42:43.184Z,5.34
2023-03-16T17:47:46.291Z,5.39
2023-03-16T17:52:50.780Z,5.24
2023-03-16T17:57:55.363Z,5.04
2023-03-16T18:03:00.908Z,4.88
2023-03-16T18:08:15.105Z,5.15
2023-03-16T18:13:22.599Z,5.02
2023-03-16T18:18:27.768Z,4.96
2023-03-16T18:23:34.656Z,5.00
2023-03-16T18:28:37.703Z,4.77
2023-03-16T18:33:42.405Z,5.02
2023-03-16T18:38:48.711Z,4.72
2023-03-16T18:43:53.238Z,4.56
2023-03-16T18:48:58.742Z,4.64
2023-03-16T18:54:03.888Z,4.77
2023-03-16T18:59:07.298Z,4.92
2023-03-16T19:04:19.810Z,4.69
2023-03-16T19:09:26.648Z,4.69
2023-03-16T19:14:33.060Z,4.59
2023-03-16T19:19:36.169Z,4.55
2023-03-16T19:24:46.640Z,4.67
2023-03-16T19:29:52.116Z,4.66
2023-03-16T19:34:55.471Z,4.43
2023-03-16T19:40:00.492Z,4.37
2023-03-16T19:45:04.349Z,4.24
2023-03-16T19:50:14.479Z,4.47
2023-03-16T19:55:22.510Z,4.28
2023-03-16T20:00:27.137Z,4.23
2023-03-16T20:05:33.035Z,4.23
2023-03-16T20:10:37.462Z,4.00
2023-03-16T20:15:40.664Z,4.14
2023-03-16T20:20:44.402Z,3.97
2023-03-16T20:25:51.070Z,4.35
2023-03-16T20:30:54.102Z,4.61
2023-03-16T20:35:57.677Z,4.62
2023-03-16T20:41:02.596Z,4.63
2023-03-16T20:46:06.670Z,4.64
2023-03-16T20:51:15.487Z,4.59
2023-03-16T20:56:21.825Z,4.63
2023-03-16T21:01:25.439Z,4.53
2023-03-16T21:06:30.236Z,4.37
2023-03-16T21:11:37.339Z,4.59
2023-03-16T21:16:40.641Z,4.40
2023-03-16T21:21:43.715Z,4.33
2023-03-16T21:26:48.462Z,4.23
2023-03-16T21:31:51.827Z,4.37
2023-03-16T21:36:54.993Z,4.09
2023-03-16T21:41:59.276Z,4.06
2023-03-16T21:47:02.289Z,4.22
2023-03-16T21:52:10.069Z,3.97
2023-03-16T21:57:15.417Z,3.74
2023-03-16T22:02:22.598Z,3.68
2023-03-16T22:07:25.854Z,3.44
2023-03-16T22:12:30.196Z,3.32
2023-03-16T22:17:33.530Z,3.14
2023-03-16T22:22:36.459Z,3.25
2023-03-16T22:27:41.416Z,3.39
2023-03-16T22:32:45.380Z,3.11
2023-03-16T22:37:48.386Z,3.00
2023-03-16T22:42:52.860Z,2.94
2023-03-16T22:47:57.389Z,2.95
2023-03-16T22:53:04.294Z,2.73
2023-03-16T22:58:15.902Z,2.67
2023-03-16T23:03:22.095Z,2.78
2023-03-16T23:08:26.672Z,2.81
2023-03-16T23:13:30.973Z,2.61
2023-03-16T23:18:34.862Z,2.58
2023-03-16T23:23:37.767Z,2.73
2023-03-16T23:28:43.346Z,2.75
2023-03-16T23:33:47.345Z,2.64
2023-03-16T23:38:51.787Z,2.39
2023-03-16T23:43:56.121Z,2.52
2023-03-16T23:49:02.496Z,2.36
2023-03-16T23:54:15.467Z,2.46
2023-03-16T23:59:20.934Z,2.37
